sensor_id;sensor_type;location;lat;lon;timestamp;pressure;altitude;pressure_sealevel;temperature;humidity
46710;BME280;32442;51.514;-0.178;2023-04-30T00:02:11;102029.28;;;23.01;43.24
46710;BME280;32442;51.514;-0.178;2023-04-30T00:04:40;102026.47;;;23.01;43.39
46710;BME280;32442;51.514;-0.178;2023-04-30T00:07:10;102030.41;;;23.00;43.21
46710;BME280;32442;51.514;-0.178;2023-04-30T00:09:37;102025.09;;;22.98;43.35
46710;BME280;32442;51.514;-0.178;2023-04-30T00:12:07;102023.09;;;22.99;43.42
46710;BME280;32442;51.514;-0.178;2023-04-30T00:14:34;102024.25;;;22.98;43.77
46710;BME280;32442;51.514;-0.178;2023-04-30T00:17:02;102034.97;;;22.96;43.62
46710;BME280;32442;51.514;-0.178;2023-04-30T00:19:29;102032.69;;;22.98;43.20
46710;BME280;32442;51.514;-0.178;2023-04-30T00:21:56;102031.06;;;22.92;43.76
46710;BME280;32442;51.514;-0.178;2023-04-30T00:24:23;102032.75;;;22.93;43.51
46710;BME280;32442;51.514;-0.178;2023-04-30T00:26:50;102031.91;;;22.92;43.74
46710;BME280;32442;51.514;-0.178;2023-04-30T00:29:16;102026.28;;;22.92;44.00
46710;BME280;32442;51.514;-0.178;2023-04-30T00:31:43;102036.16;;;22.90;43.81
46710;BME280;32442;51.514;-0.178;2023-04-30T00:34:11;102020.13;;;22.85;43.68
46710;BME280;32442;51.514;-0.178;2023-04-30T00:36:40;102017.63;;;22.84;43.72
46710;BME280;32442;51.514;-0.178;2023-04-30T00:39:07;102009.75;;;22.81;43.79
46710;BME280;32442;51.514;-0.178;2023-04-30T00:41:34;102012.56;;;22.81;43.99
46710;BME280;32442;51.514;-0.178;2023-04-30T00:44:01;102016.00;;;22.78;43.89
46710;BME280;32442;51.514;-0.178;2023-04-30T00:46:28;102021.09;;;22.76;43.97
46710;BME280;32442;51.514;-0.178;2023-04-30T00:48:56;102020.56;;;22.74;44.11
46710;BME280;32442;51.514;-0.178;2023-04-30T00:51:23;102018.03;;;22.72;44.42
46710;BME280;32442;51.514;-0.178;2023-04-30T00:53:50;102015.53;;;22.71;44.46
46710;BME280;32442;51.514;-0.178;2023-04-30T00:56:17;102017.75;;;22.69;44.29
46710;BME280;32442;51.514;-0.178;2023-04-30T00:58:44;102021.47;;;22.64;44.36
46710;BME280;32442;51.514;-0.178;2023-04-30T01:01:14;102018.41;;;22.60;44.70
46710;BME280;32442;51.514;-0.178;2023-04-30T01:03:41;102020.13;;;22.56;44.64
46710;BME280;32442;51.514;-0.178;2023-04-30T01:06:09;102016.75;;;22.54;44.67
46710;BME280;32442;51.514;-0.178;2023-04-30T01:08:36;102001.00;;;22.53;44.92
46710;BME280;32442;51.514;-0.178;2023-04-30T01:13:38;102000.75;;;22.50;45.07
46710;BME280;32442;51.514;-0.178;2023-04-30T01:18:47;102005.00;;;22.47;45.00
46710;BME280;32442;51.514;-0.178;2023-04-30T01:21:15;102004.78;;;22.44;45.04
46710;BME280;32442;51.514;-0.178;2023-04-30T01:28:51;102007.03;;;22.42;45.13
46710;BME280;32442;51.514;-0.178;2023-04-30T01:31:19;102009.28;;;22.40;45.07
46710;BME280;32442;51.514;-0.178;2023-04-30T01:33:46;102006.78;;;22.38;45.37
46710;BME280;32442;51.514;-0.178;2023-04-30T01:38:57;101999.47;;;22.37;45.58
46710;BME280;32442;51.514;-0.178;2023-04-30T01:41:30;102004.53;;;22.35;45.63
46710;BME280;32442;51.514;-0.178;2023-04-30T01:46:29;102006.25;;;22.31;45.81
46710;BME280;32442;51.514;-0.178;2023-04-30T01:56:48;101997.06;;;22.26;45.75
46710;BME280;32442;51.514;-0.178;2023-04-30T01:59:17;101993.69;;;22.24;45.74
46710;BME280;32442;51.514;-0.178;2023-04-30T02:01:47;101999.31;;;22.24;46.05
46710;BME280;32442;51.514;-0.178;2023-04-30T02:04:14;101995.66;;;22.23;46.07
46710;BME280;32442;51.514;-0.178;2023-04-30T02:06:41;101989.50;;;22.21;46.06
46710;BME280;32442;51.514;-0.178;2023-04-30T02:09:08;101990.63;;;22.20;45.99
46710;BME280;32442;51.514;-0.178;2023-04-30T02:11:36;101994.31;;;22.15;46.35
46710;BME280;32442;51.514;-0.178;2023-04-30T02:14:03;101993.47;;;22.15;46.06
46710;BME280;32442;51.514;-0.178;2023-04-30T02:16:30;101987.00;;;22.14;45.77
46710;BME280;32442;51.514;-0.178;2023-04-30T02:18:56;101997.41;;;22.14;46.26
46710;BME280;32442;51.514;-0.178;2023-04-30T02:21:23;101992.34;;;22.16;46.32
46710;BME280;32442;51.514;-0.178;2023-04-30T02:23:50;101996.56;;;22.13;46.08
46710;BME280;32442;51.514;-0.178;2023-04-30T02:26:17;101991.25;;;22.12;46.12
46710;BME280;32442;51.514;-0.178;2023-04-30T02:28:44;101996.88;;;22.12;46.10
46710;BME280;32442;51.514;-0.178;2023-04-30T02:31:11;101990.69;;;22.10;45.93
46710;BME280;32442;51.514;-0.178;2023-04-30T02:33:39;101995.19;;;22.11;46.31
46710;BME280;32442;51.514;-0.178;2023-04-30T02:36:06;101992.66;;;22.09;46.75
46710;BME280;32442;51.514;-0.178;2023-04-30T02:38:33;101986.19;;;22.09;46.62
46710;BME280;32442;51.514;-0.178;2023-04-30T02:41:00;101990.13;;;22.08;46.66
46710;BME280;32442;51.514;-0.178;2023-04-30T02:43:27;101987.31;;;22.08;46.45
46710;BME280;32442;51.514;-0.178;2023-04-30T02:45:54;101982.28;;;22.05;46.50
46710;BME280;32442;51.514;-0.178;2023-04-30T02:48:21;101979.47;;;22.05;46.22
46710;BME280;32442;51.514;-0.178;2023-04-30T02:50:48;101975.53;;;22.06;46.69
46710;BME280;32442;51.514;-0.178;2023-04-30T02:53:15;101975.28;;;22.02;46.26
46710;BME280;32442;51.514;-0.178;2023-04-30T02:55:41;101974.13;;;22.03;46.78
46710;BME280;32442;51.514;-0.178;2023-04-30T02:58:08;101974.44;;;22.02;46.57
46710;BME280;32442;51.514;-0.178;2023-04-30T03:00:35;101980.91;;;22.02;46.41
46710;BME280;32442;51.514;-0.178;2023-04-30T03:03:02;101972.75;;;22.01;46.54
46710;BME280;32442;51.514;-0.178;2023-04-30T03:05:29;101975.84;;;21.99;46.64
46710;BME280;32442;51.514;-0.178;2023-04-30T03:07:56;101976.16;;;21.98;46.86
46710;BME280;32442;51.514;-0.178;2023-04-30T03:10:23;101984.88;;;21.96;46.83
46710;BME280;32442;51.514;-0.178;2023-04-30T03:12:50;101974.47;;;21.97;46.46
46710;BME280;32442;51.514;-0.178;2023-04-30T03:15:17;101986.84;;;21.96;46.53
46710;BME280;32442;51.514;-0.178;2023-04-30T03:17:44;101989.16;;;21.94;46.70
46710;BME280;32442;51.514;-0.178;2023-04-30T03:20:11;101988.28;;;21.93;46.79
46710;BME280;32442;51.514;-0.178;2023-04-30T03:22:39;101980.94;;;21.92;47.06
46710;BME280;32442;51.514;-0.178;2023-04-30T03:25:07;101974.47;;;21.92;46.67
46710;BME280;32442;51.514;-0.178;2023-04-30T03:27:34;101984.03;;;21.91;46.92
46710;BME280;32442;51.514;-0.178;2023-04-30T03:30:01;101982.34;;;21.90;47.05
46710;BME280;32442;51.514;-0.178;2023-04-30T03:32:28;101982.34;;;21.90;47.00
46710;BME280;32442;51.514;-0.178;2023-04-30T03:34:54;101980.69;;;21.89;47.24
46710;BME280;32442;51.514;-0.178;2023-04-30T03:37:21;101984.09;;;21.86;47.22
46710;BME280;32442;51.514;-0.178;2023-04-30T03:39:48;101973.66;;;21.86;47.36
46710;BME280;32442;51.514;-0.178;2023-04-30T03:42:15;101979.59;;;21.85;47.24
46710;BME280;32442;51.514;-0.178;2023-04-30T03:44:42;101977.91;;;21.84;47.46
46710;BME280;32442;51.514;-0.178;2023-04-30T03:47:09;101975.09;;;21.84;47.15
46710;BME280;32442;51.514;-0.178;2023-04-30T03:49:38;101971.44;;;21.83;47.17
46710;BME280;32442;51.514;-0.178;2023-04-30T03:52:05;101972.28;;;21.84;46.99
46710;BME280;32442;51.514;-0.178;2023-04-30T03:54:32;101974.53;;;21.82;47.17
46710;BME280;32442;51.514;-0.178;2023-04-30T03:56:59;101975.66;;;21.81;47.05
46710;BME280;32442;51.514;-0.178;2023-04-30T03:59:30;101973.16;;;21.79;47.62
46710;BME280;32442;51.514;-0.178;2023-04-30T04:01:57;101983.59;;;21.79;47.23
46710;BME280;32442;51.514;-0.178;2023-04-30T04:04:24;101971.47;;;21.78;47.09
46710;BME280;32442;51.514;-0.178;2023-04-30T04:06:51;101970.09;;;21.76;47.11
46710;BME280;32442;51.514;-0.178;2023-04-30T04:09:17;101974.31;;;21.73;47.56
46710;BME280;32442;51.514;-0.178;2023-04-30T04:11:44;101976.00;;;21.74;47.34
46710;BME280;32442;51.514;-0.178;2023-04-30T04:14:11;101972.34;;;21.73;47.48
46710;BME280;32442;51.514;-0.178;2023-04-30T04:16:38;101974.59;;;21.71;47.14
46710;BME280;32442;51.514;-0.178;2023-04-30T04:19:05;101970.97;;;21.71;47.30
46710;BME280;32442;51.514;-0.178;2023-04-30T04:21:32;101970.13;;;21.70;47.34
46710;BME280;32442;51.514;-0.178;2023-04-30T04:23:59;101972.94;;;21.70;47.01
46710;BME280;32442;51.514;-0.178;2023-04-30T04:26:34;101966.75;;;21.68;47.03
46710;BME280;32442;51.514;-0.178;2023-04-30T04:29:02;101965.38;;;21.66;47.20
46710;BME280;32442;51.514;-0.178;2023-04-30T04:31:30;101970.16;;;21.65;47.20
46710;BME280;32442;51.514;-0.178;2023-04-30T04:33:58;101975.78;;;21.65;47.22
46710;BME280;32442;51.514;-0.178;2023-04-30T04:36:26;101972.41;;;21.63;47.22
46710;BME280;32442;51.514;-0.178;2023-04-30T04:38:54;101969.91;;;21.62;47.24
46710;BME280;32442;51.514;-0.178;2023-04-30T04:41:23;101980.31;;;21.61;47.07
46710;BME280;32442;51.514;-0.178;2023-04-30T04:43:52;101976.66;;;21.61;47.30
46710;BME280;32442;51.514;-0.178;2023-04-30T04:46:19;101970.72;;;21.62;47.31
46710;BME280;32442;51.514;-0.178;2023-04-30T04:48:46;101966.81;;;21.58;47.51
46710;BME280;32442;51.514;-0.178;2023-04-30T04:51:13;101968.78;;;21.58;47.35
46710;BME280;32442;51.514;-0.178;2023-04-30T04:53:42;101971.59;;;21.58;47.84
46710;BME280;32442;51.514;-0.178;2023-04-30T04:56:09;101970.50;;;21.54;47.85
46710;BME280;32442;51.514;-0.178;2023-04-30T04:58:40;101966.84;;;21.53;47.83
46710;BME280;32442;51.514;-0.178;2023-04-30T05:01:07;101971.66;;;21.53;47.90
46710;BME280;32442;51.514;-0.178;2023-04-30T05:03:35;101968.84;;;21.53;48.04
46710;BME280;32442;51.514;-0.178;2023-04-30T05:06:03;101972.47;;;21.53;48.07
46710;BME280;32442;51.514;-0.178;2023-04-30T05:08:30;101973.91;;;21.51;48.03
46710;BME280;32442;51.514;-0.178;2023-04-30T05:10:57;101974.75;;;21.51;47.79
46710;BME280;32442;51.514;-0.178;2023-04-30T05:13:24;101972.22;;;21.50;47.93
46710;BME280;32442;51.514;-0.178;2023-04-30T05:15:53;101967.72;;;21.49;47.68
46710;BME280;32442;51.514;-0.178;2023-04-30T05:18:21;101969.72;;;21.48;47.85
46710;BME280;32442;51.514;-0.178;2023-04-30T05:20:48;101970.84;;;21.47;47.86
46710;BME280;32442;51.514;-0.178;2023-04-30T05:23:15;101965.22;;;21.47;48.06
46710;BME280;32442;51.514;-0.178;2023-04-30T05:25:41;101964.66;;;21.45;47.81
46710;BME280;32442;51.514;-0.178;2023-04-30T05:28:08;101973.41;;;21.44;47.87
46710;BME280;32442;51.514;-0.178;2023-04-30T05:30:35;101971.41;;;21.44;47.66
46710;BME280;32442;51.514;-0.178;2023-04-30T05:33:02;101975.06;;;21.45;47.54
46710;BME280;32442;51.514;-0.178;2023-04-30T05:35:29;101979.31;;;21.42;47.96
46710;BME280;32442;51.514;-0.178;2023-04-30T05:37:57;101976.50;;;21.42;47.80
46710;BME280;32442;51.514;-0.178;2023-04-30T05:40:24;101966.38;;;21.41;47.91
46710;BME280;32442;51.514;-0.178;2023-04-30T05:42:50;101975.09;;;21.40;48.05
46710;BME280;32442;51.514;-0.178;2023-04-30T05:45:17;101980.44;;;21.41;47.82
46710;BME280;32442;51.514;-0.178;2023-04-30T05:47:44;101982.72;;;21.39;47.95
46710;BME280;32442;51.514;-0.178;2023-04-30T05:50:11;101973.44;;;21.39;48.05
46710;BME280;32442;51.514;-0.178;2023-04-30T05:52:38;101978.22;;;21.38;47.87
46710;BME280;32442;51.514;-0.178;2023-04-30T05:55:05;101978.47;;;21.37;48.01
46710;BME280;32442;51.514;-0.178;2023-04-30T05:57:32;101977.09;;;21.39;47.87
46710;BME280;32442;51.514;-0.178;2023-04-30T06:00:00;101978.75;;;21.35;48.09
46710;BME280;32442;51.514;-0.178;2023-04-30T06:02:27;101979.91;;;21.34;47.58
46710;BME280;32442;51.514;-0.178;2023-04-30T06:04:55;101978.75;;;21.35;48.00
46710;BME280;32442;51.514;-0.178;2023-04-30T06:07:22;101980.75;;;21.35;47.91
46710;BME280;32442;51.514;-0.178;2023-04-30T06:09:48;101979.06;;;21.34;47.55
46710;BME280;32442;51.514;-0.178;2023-04-30T06:12:15;101975.13;;;21.35;47.54
46710;BME280;32442;51.514;-0.178;2023-04-30T06:14:42;101973.72;;;21.32;47.93
46710;BME280;32442;51.514;-0.178;2023-04-30T06:17:11;101977.97;;;21.29;47.89
46710;BME280;32442;51.514;-0.178;2023-04-30T06:19:38;101980.78;;;21.29;48.05
46710;BME280;32442;51.514;-0.178;2023-04-30T06:22:05;101976.28;;;21.28;47.80
46710;BME280;32442;51.514;-0.178;2023-04-30T06:24:32;101974.31;;;21.29;47.94
46710;BME280;32442;51.514;-0.178;2023-04-30T06:26:59;101979.38;;;21.27;47.83
46710;BME280;32442;51.514;-0.178;2023-04-30T06:29:26;101970.94;;;21.27;47.90
46710;BME280;32442;51.514;-0.178;2023-04-30T06:31:53;101986.97;;;21.26;47.79
46710;BME280;32442;51.514;-0.178;2023-04-30T06:34:20;101982.19;;;21.27;47.99
46710;BME280;32442;51.514;-0.178;2023-04-30T06:36:47;101980.50;;;21.26;48.08
46710;BME280;32442;51.514;-0.178;2023-04-30T06:39:14;101983.31;;;21.26;48.12
46710;BME280;32442;51.514;-0.178;2023-04-30T06:41:44;101983.31;;;21.26;47.86
46710;BME280;32442;51.514;-0.178;2023-04-30T06:44:12;101989.50;;;21.23;48.03
46710;BME280;32442;51.514;-0.178;2023-04-30T06:46:39;101985.59;;;21.24;47.72
46710;BME280;32442;51.514;-0.178;2023-04-30T06:49:06;101986.16;;;21.21;47.83
46710;BME280;32442;51.514;-0.178;2023-04-30T06:51:33;101986.97;;;21.21;47.89
46710;BME280;32442;51.514;-0.178;2023-04-30T06:54:00;101990.63;;;21.22;47.69
46710;BME280;32442;51.514;-0.178;2023-04-30T06:56:27;101986.16;;;21.21;47.74
46710;BME280;32442;51.514;-0.178;2023-04-30T06:58:54;101984.47;;;21.20;47.74
46710;BME280;32442;51.514;-0.178;2023-04-30T07:01:23;101997.41;;;21.21;47.85
46710;BME280;32442;51.514;-0.178;2023-04-30T07:03:50;101998.22;;;21.21;48.08
46710;BME280;32442;51.514;-0.178;2023-04-30T07:06:19;101989.25;;;21.19;48.18
46710;BME280;32442;51.514;-0.178;2023-04-30T07:08:47;101993.19;;;21.18;47.76
46710;BME280;32442;51.514;-0.178;2023-04-30T07:11:14;101986.72;;;21.18;47.98
46710;BME280;32442;51.514;-0.178;2023-04-30T07:13:43;101989.84;;;21.16;48.22
46710;BME280;32442;51.514;-0.178;2023-04-30T07:16:10;101992.34;;;21.18;48.07
46710;BME280;32442;51.514;-0.178;2023-04-30T07:18:37;101985.59;;;21.24;48.04
46710;BME280;32442;51.514;-0.178;2023-04-30T07:21:03;101992.59;;;21.21;47.86
46710;BME280;32442;51.514;-0.178;2023-04-30T07:23:30;101986.72;;;21.18;47.73
46710;BME280;32442;51.514;-0.178;2023-04-30T07:25:57;101984.75;;;21.18;48.12
46710;BME280;32442;51.514;-0.178;2023-04-30T07:28:24;101985.03;;;21.17;48.13
46710;BME280;32442;51.514;-0.178;2023-04-30T07:30:51;101980.25;;;21.17;48.08
46710;BME280;32442;51.514;-0.178;2023-04-30T07:33:18;101978.03;;;21.14;47.78
46710;BME280;32442;51.514;-0.178;2023-04-30T07:35:45;101990.97;;;21.15;48.28
46710;BME280;32442;51.514;-0.178;2023-04-30T07:38:12;101972.69;;;21.13;48.25
46710;BME280;32442;51.514;-0.178;2023-04-30T07:40:39;101983.66;;;21.14;48.30
46710;BME280;32442;51.514;-0.178;2023-04-30T07:43:06;101984.22;;;21.16;48.15
46710;BME280;32442;51.514;-0.178;2023-04-30T07:45:34;101984.22;;;21.16;48.34
46710;BME280;32442;51.514;-0.178;2023-04-30T07:48:02;101974.94;;;21.16;48.23
46710;BME280;32442;51.514;-0.178;2023-04-30T07:50:29;101977.44;;;21.22;47.58
46710;BME280;32442;51.514;-0.178;2023-04-30T07:52:59;101982.19;;;21.27;47.76
46710;BME280;32442;51.514;-0.178;2023-04-30T07:55:27;101975.41;;;21.33;47.43
46710;BME280;32442;51.514;-0.178;2023-04-30T07:57:53;101984.09;;;21.37;47.40
46710;BME280;32442;51.514;-0.178;2023-04-30T08:00:20;101984.94;;;21.42;47.46
46710;BME280;32442;51.514;-0.178;2023-04-30T08:02:47;101978.44;;;21.47;47.72
46710;BME280;32442;51.514;-0.178;2023-04-30T08:05:15;101976.44;;;21.52;47.66
46710;BME280;32442;51.514;-0.178;2023-04-30T08:07:42;101978.38;;;21.57;47.77
46710;BME280;32442;51.514;-0.178;2023-04-30T08:10:11;101978.34;;;21.62;47.98
46710;BME280;32442;51.514;-0.178;2023-04-30T08:12:38;101984.22;;;21.65;47.92
46710;BME280;32442;51.514;-0.178;2023-04-30T08:15:05;101986.16;;;21.70;47.78
46710;BME280;32442;51.514;-0.178;2023-04-30T08:17:33;101981.91;;;21.72;47.51
46710;BME280;32442;51.514;-0.178;2023-04-30T08:20:02;101978.56;;;21.76;47.48
46710;BME280;32442;51.514;-0.178;2023-04-30T08:22:29;101988.94;;;21.80;47.14
46710;BME280;32442;51.514;-0.178;2023-04-30T08:24:56;101981.84;;;21.83;46.80
46710;BME280;32442;51.514;-0.178;2023-04-30T08:27:23;101982.09;;;21.86;46.68
46710;BME280;32442;51.514;-0.178;2023-04-30T08:29:50;101977.88;;;21.89;46.91
46710;BME280;32442;51.514;-0.178;2023-04-30T08:32:17;101974.47;;;21.92;46.37
46710;BME280;32442;51.514;-0.178;2023-04-30T08:34:45;101980.69;;;21.94;46.64
46710;BME280;32442;51.514;-0.178;2023-04-30T08:37:12;101982.91;;;21.97;46.16
46710;BME280;32442;51.514;-0.178;2023-04-30T08:39:39;101968.25;;;22.00;46.44
46710;BME280;32442;51.514;-0.178;2023-04-30T08:42:07;101971.63;;;22.02;45.89
46710;BME280;32442;51.514;-0.178;2023-04-30T08:44:35;101970.50;;;22.03;46.23
46710;BME280;32442;51.514;-0.178;2023-04-30T08:47:05;101975.53;;;22.06;46.19
46710;BME280;32442;51.514;-0.178;2023-04-30T08:49:32;101964.50;;;22.09;45.74
46710;BME280;32442;51.514;-0.178;2023-04-30T08:52:01;101967.03;;;22.11;46.03
46710;BME280;32442;51.514;-0.178;2023-04-30T08:54:29;101966.72;;;22.12;45.75
46710;BME280;32442;51.514;-0.178;2023-04-30T08:56:57;101968.41;;;22.13;45.98
46710;BME280;32442;51.514;-0.178;2023-04-30T08:59:24;101968.41;;;22.13;45.84
46710;BME280;32442;51.514;-0.178;2023-04-30T09:01:51;101958.00;;;22.14;45.25
46710;BME280;32442;51.514;-0.178;2023-04-30T09:04:19;101957.72;;;22.15;45.22
46710;BME280;32442;51.514;-0.178;2023-04-30T09:06:46;101956.88;;;22.15;45.21
46710;BME280;32442;51.514;-0.178;2023-04-30T09:09:14;101963.03;;;22.17;45.29
46710;BME280;32442;51.514;-0.178;2023-04-30T09:11:41;101947.31;;;22.16;45.32
46710;BME280;32442;51.514;-0.178;2023-04-30T09:14:08;101957.41;;;22.17;45.18
46710;BME280;32442;51.514;-0.178;2023-04-30T09:21:51;101946.69;;;22.19;44.97
46710;BME280;32442;51.514;-0.178;2023-04-30T09:24:18;101941.91;;;22.20;44.61
46710;BME280;32442;51.514;-0.178;2023-04-30T09:26:45;101949.22;;;22.21;44.86
46710;BME280;32442;51.514;-0.178;2023-04-30T09:29:13;101947.25;;;22.21;44.68
46710;BME280;32442;51.514;-0.178;2023-04-30T09:34:16;101940.47;;;22.22;44.10
46710;BME280;32442;51.514;-0.178;2023-04-30T09:39:21;101934.56;;;22.24;44.00
46710;BME280;32442;51.514;-0.178;2023-04-30T09:41:49;101935.09;;;22.26;44.09
46710;BME280;32442;51.514;-0.178;2023-04-30T09:44:25;101935.09;;;22.26;43.98
46710;BME280;32442;51.514;-0.178;2023-04-30T09:46:52;101928.31;;;22.27;43.89
46710;BME280;32442;51.514;-0.178;2023-04-30T09:49:19;101926.06;;;22.29;43.85
46710;BME280;32442;51.514;-0.178;2023-04-30T09:54:25;101927.47;;;22.26;44.05
46710;BME280;32442;51.514;-0.178;2023-04-30T09:56:57;101935.09;;;22.26;44.39
46710;BME280;32442;51.514;-0.178;2023-04-30T09:59:28;101935.41;;;22.24;44.54
46710;BME280;32442;51.514;-0.178;2023-04-30T10:01:57;101928.91;;;22.24;44.31
46710;BME280;32442;51.514;-0.178;2023-04-30T10:04:30;101923.00;;;22.25;44.36
46710;BME280;32442;51.514;-0.178;2023-04-30T10:06:58;101935.41;;;22.24;44.39
46710;BME280;32442;51.514;-0.178;2023-04-30T10:09:28;101935.91;;;22.26;44.33
46710;BME280;32442;51.514;-0.178;2023-04-30T10:11:58;101926.38;;;22.22;44.65
46710;BME280;32442;51.514;-0.178;2023-04-30T10:14:27;101930.06;;;22.23;44.30
46710;BME280;32442;51.514;-0.178;2023-04-30T10:16:58;101927.56;;;22.21;44.26
46710;BME280;32442;51.514;-0.178;2023-04-30T10:19:29;101921.09;;;22.21;44.18
46710;BME280;32442;51.514;-0.178;2023-04-30T10:21:57;101918.25;;;22.21;44.38
46710;BME280;32442;51.514;-0.178;2023-04-30T10:24:25;101917.09;;;22.22;44.27
46710;BME280;32442;51.514;-0.178;2023-04-30T10:26:53;101911.78;;;22.20;44.20
46710;BME280;32442;51.514;-0.178;2023-04-30T10:29:20;101911.78;;;22.20;44.55
46710;BME280;32442;51.514;-0.178;2023-04-30T10:31:48;101914.59;;;22.20;44.31
46710;BME280;32442;51.514;-0.178;2023-04-30T10:36:55;101910.94;;;22.20;44.12
46710;BME280;32442;51.514;-0.178;2023-04-30T10:39:24;101907.28;;;22.19;44.19
46710;BME280;32442;51.514;-0.178;2023-04-30T10:44:31;101898.59;;;22.15;44.16
46710;BME280;32442;51.514;-0.178;2023-04-30T10:46:59;101896.31;;;22.17;44.05
46710;BME280;32442;51.514;-0.178;2023-04-30T10:49:27;101896.91;;;22.14;44.55
46710;BME280;32442;51.514;-0.178;2023-04-30T10:51:55;101892.41;;;22.13;44.24
46710;BME280;32442;51.514;-0.178;2023-04-30T10:54:26;101891.28;;;22.14;44.46
46710;BME280;32442;51.514;-0.178;2023-04-30T10:56:54;101893.25;;;22.14;44.16
46710;BME280;32442;51.514;-0.178;2023-04-30T10:59:35;101890.72;;;22.12;44.09
46710;BME280;32442;51.514;-0.178;2023-04-30T11:02:02;101883.41;;;22.16;43.63
46710;BME280;32442;51.514;-0.178;2023-04-30T11:04:29;101881.66;;;22.21;43.83
46710;BME280;32442;51.514;-0.178;2023-04-30T11:12:12;101876.66;;;22.12;41.81
46710;BME280;32442;51.514;-0.178;2023-04-30T11:14:41;101869.19;;;22.27;41.80
46710;BME280;32442;51.514;-0.178;2023-04-30T11:17:08;101864.66;;;22.31;41.38
46710;BME280;32442;51.514;-0.178;2023-04-30T11:19:40;101856.75;;;22.33;41.54
46710;BME280;32442;51.514;-0.178;2023-04-30T11:27:11;101861.38;;;22.47;41.11
46710;BME280;32442;51.514;-0.178;2023-04-30T11:29:38;101846.97;;;22.49;41.58
46710;BME280;32442;51.514;-0.178;2023-04-30T11:32:06;101839.31;;;22.54;41.36
46710;BME280;32442;51.514;-0.178;2023-04-30T11:34:33;101846.56;;;22.60;41.37
46710;BME280;32442;51.514;-0.178;2023-04-30T11:37:00;101826.22;;;22.63;41.53
46710;BME280;32442;51.514;-0.178;2023-04-30T11:39:29;101831.28;;;22.67;41.34
46710;BME280;32442;51.514;-0.178;2023-04-30T11:41:57;101847.31;;;22.71;41.60
46710;BME280;32442;51.514;-0.178;2023-04-30T11:44:24;101844.19;;;22.73;41.33
46710;BME280;32442;51.514;-0.178;2023-04-30T11:46:52;101837.63;;;22.77;41.26
46710;BME280;32442;51.514;-0.178;2023-04-30T11:49:19;101825.47;;;22.82;41.66
46710;BME280;32442;51.514;-0.178;2023-04-30T11:51:48;101827.69;;;22.85;41.42
46710;BME280;32442;51.514;-0.178;2023-04-30T11:54:15;101832.72;;;22.88;41.44
46710;BME280;32442;51.514;-0.178;2023-04-30T11:56:45;101826.47;;;22.91;41.41
46710;BME280;32442;51.514;-0.178;2023-04-30T11:59:14;101830.97;;;22.92;41.22
46710;BME280;32442;51.514;-0.178;2023-04-30T12:01:41;101825.88;;;22.94;41.32
46710;BME280;32442;51.514;-0.178;2023-04-30T12:04:09;101814.28;;;22.95;41.27
46710;BME280;32442;51.514;-0.178;2023-04-30T12:06:36;101826.09;;;22.97;40.92
46710;BME280;32442;51.514;-0.178;2023-04-30T12:09:04;101825.78;;;22.99;40.68
46710;BME280;32442;51.514;-0.178;2023-04-30T12:11:33;101819.00;;;23.00;40.80
46710;BME280;32442;51.514;-0.178;2023-04-30T12:14:04;101817.03;;;23.00;40.85
46710;BME280;32442;51.514;-0.178;2023-04-30T12:19:15;101813.91;;;23.02;40.88
46710;BME280;32442;51.514;-0.178;2023-04-30T12:21:43;101816.41;;;23.03;40.99
46710;BME280;32442;51.514;-0.178;2023-04-30T12:24:12;101820.63;;;23.06;40.91
46710;BME280;32442;51.514;-0.178;2023-04-30T12:26:39;101820.63;;;23.06;40.31
46710;BME280;32442;51.514;-0.178;2023-04-30T12:29:08;101819.47;;;23.07;40.19
46710;BME280;32442;51.514;-0.178;2023-04-30T12:31:40;101813.28;;;23.05;40.45
46710;BME280;32442;51.514;-0.178;2023-04-30T12:34:08;101818.94;;;23.05;40.67
46710;BME280;32442;51.514;-0.178;2023-04-30T12:36:37;101812.44;;;23.04;40.55
46710;BME280;32442;51.514;-0.178;2023-04-30T12:41:35;101808.56;;;23.00;40.58
46710;BME280;32442;51.514;-0.178;2023-04-30T12:46:38;101802.63;;;23.02;40.86
46710;BME280;32442;51.514;-0.178;2023-04-30T12:49:06;101803.47;;;23.02;40.29
46710;BME280;32442;51.514;-0.178;2023-04-30T12:51:34;101797.84;;;23.02;40.53
46710;BME280;32442;51.514;-0.178;2023-04-30T12:54:01;101797.84;;;23.02;40.57
46710;BME280;32442;51.514;-0.178;2023-04-30T12:56:28;101794.47;;;23.00;40.42
46710;BME280;32442;51.514;-0.178;2023-04-30T12:58:55;101789.69;;;23.01;40.58
46710;BME280;32442;51.514;-0.178;2023-04-30T13:01:22;101797.00;;;23.02;40.21
46710;BME280;32442;51.514;-0.178;2023-04-30T13:03:51;101791.38;;;23.02;39.90
46710;BME280;32442;51.514;-0.178;2023-04-30T13:06:20;101798.44;;;22.99;40.17
46710;BME280;32442;51.514;-0.178;2023-04-30T13:08:48;101789.69;;;23.01;40.13
46710;BME280;32442;51.514;-0.178;2023-04-30T13:11:24;101794.78;;;22.99;39.99
46710;BME280;32442;51.514;-0.178;2023-04-30T13:13:53;101787.47;;;22.98;39.95
46710;BME280;32442;51.514;-0.178;2023-04-30T13:16:21;101793.41;;;22.96;39.56
46710;BME280;32442;51.514;-0.178;2023-04-30T13:18:51;101794.25;;;22.97;39.68
46710;BME280;32442;51.514;-0.178;2023-04-30T13:21:19;101786.94;;;22.96;39.39
46710;BME280;32442;51.514;-0.178;2023-04-30T13:23:47;101784.97;;;22.96;39.34
46710;BME280;32442;51.514;-0.178;2023-04-30T13:26:19;101780.16;;;22.97;39.31
46710;BME280;32442;51.514;-0.178;2023-04-30T13:28:48;101784.13;;;22.96;38.98
46710;BME280;32442;51.514;-0.178;2023-04-30T13:31:15;101780.22;;;22.92;39.34
46710;BME280;32442;51.514;-0.178;2023-04-30T13:33:43;101780.53;;;22.90;38.87
46710;BME280;32442;51.514;-0.178;2023-04-30T13:36:10;101778.56;;;22.91;39.32
46710;BME280;32442;51.514;-0.178;2023-04-30T13:38:37;101778.63;;;22.86;39.47
46710;BME280;32442;51.514;-0.178;2023-04-30T13:41:05;101769.66;;;22.84;38.93
46710;BME280;32442;51.514;-0.178;2023-04-30T13:43:32;101765.44;;;22.81;39.62